createdAt,value
2022-11-05T00:00:06.805Z,10.13
2022-11-05T00:03:04.045Z,9.60
2022-11-05T00:05:54.218Z,9.20
2022-11-05T00:08:44.366Z,8.97
2022-11-05T00:11:18.421Z,8.90
2022-11-05T00:14:09.093Z,10.00
2022-11-05T00:16:50.556Z,9.47
2022-11-05T00:19:24.537Z,9.53
2022-11-05T00:22:14.731Z,8.10
2022-11-05T00:25:05.005Z,8.30
2022-11-05T00:27:37.594Z,7.97
2022-11-05T00:30:11.092Z,7.97
2022-11-05T00:32:43.719Z,7.70
2022-11-05T00:35:23.247Z,7.63
2022-11-05T00:37:57.885Z,8.70
2022-11-05T00:40:30.595Z,7.23
2022-11-05T00:43:20.512Z,7.37
2022-11-05T00:45:53.226Z,7.50
2022-11-05T00:48:43.346Z,7.30
2022-11-05T00:51:17.215Z,7.33
2022-11-05T00:53:52.883Z,7.50
2022-11-05T00:56:25.533Z,7.43
2022-11-05T00:59:00.112Z,7.07
2022-11-05T01:01:32.727Z,7.37
2022-11-05T01:04:05.630Z,6.80
2022-11-05T01:06:39.658Z,7.00
2022-11-05T01:09:12.227Z,7.00
2022-11-05T01:11:46.036Z,7.37
2022-11-05T01:14:18.882Z,6.63
2022-11-05T01:16:51.419Z,6.50
2022-11-05T01:19:23.978Z,7.30
2022-11-05T01:21:57.870Z,7.43
2022-11-05T01:24:30.471Z,7.60
2022-11-05T01:27:03.359Z,6.57
2022-11-05T01:29:35.977Z,6.30
2022-11-05T01:32:08.474Z,6.53
2022-11-05T01:34:41.104Z,7.23
2022-11-05T01:37:17.471Z,6.50
2022-11-05T01:39:50.185Z,7.20
2022-11-05T01:42:25.285Z,7.13
2022-11-05T01:44:59.250Z,7.17
2022-11-05T01:47:43.924Z,6.90
2022-11-05T01:50:21.515Z,6.83
2022-11-05T01:52:59.622Z,7.00
2022-11-05T01:55:34.677Z,6.80
2022-11-05T01:58:08.389Z,6.17
2022-11-05T02:00:41.789Z,7.30
2022-11-05T02:03:14.892Z,7.00
2022-11-05T02:05:49.121Z,7.23
2022-11-05T02:08:28.255Z,6.80
2022-11-05T02:11:04.178Z,6.73
2022-11-05T02:13:37.221Z,6.87
2022-11-05T02:16:12.776Z,6.67
2022-11-05T02:18:52.576Z,6.83
2022-11-05T02:21:41.908Z,7.23
2022-11-05T02:24:27.984Z,7.10
2022-11-05T02:27:05.273Z,7.27
2022-11-05T02:30:03.457Z,8.13
2022-11-05T02:32:44.529Z,8.03
2022-11-05T02:35:23.552Z,7.90
2022-11-05T02:38:02.259Z,8.43
2022-11-05T02:40:37.488Z,9.00
2022-11-05T02:43:16.047Z,8.37
2022-11-05T02:45:54.605Z,9.27
2022-11-05T02:48:31.028Z,8.07
2022-11-05T02:51:06.787Z,9.50
2022-11-05T02:53:47.293Z,9.40
2022-11-05T02:56:21.982Z,8.70
2022-11-05T02:58:54.570Z,9.70
2022-11-05T03:01:27.256Z,9.07
2022-11-05T03:04:04.257Z,9.57
2022-11-05T03:06:51.858Z,8.77
2022-11-05T03:09:31.893Z,8.70
2022-11-05T03:12:11.211Z,9.10
2022-11-05T03:14:46.251Z,8.30
2022-11-05T03:17:25.757Z,8.40
2022-11-05T03:20:02.851Z,8.93
2022-11-05T03:22:40.467Z,8.83
2022-11-05T03:25:15.758Z,9.97
2022-11-05T03:27:50.316Z,9.47
2022-11-05T03:30:24.799Z,8.13
2022-11-05T03:32:59.396Z,10.10
2022-11-05T03:35:37.159Z,8.90
2022-11-05T03:38:14.367Z,8.73
2022-11-05T03:40:49.458Z,9.47
2022-11-05T03:43:23.940Z,9.27
2022-11-05T03:45:59.340Z,9.00
2022-11-05T03:48:33.845Z,7.70
2022-11-05T03:51:11.292Z,8.87
2022-11-05T03:53:45.339Z,8.93
2022-11-05T03:56:20.329Z,8.80
2022-11-05T03:58:58.528Z,8.50
2022-11-05T04:01:32.264Z,8.37
2022-11-05T04:04:05.577Z,9.00
2022-11-05T04:06:56.820Z,9.40
2022-11-05T04:09:46.990Z,9.10
2022-11-05T04:12:37.208Z,8.87
2022-11-05T04:15:10.047Z,7.97
2022-11-05T04:17:41.975Z,8.60
2022-11-05T04:20:31.843Z,7.93
2022-11-05T04:23:25.516Z,7.97
2022-11-05T04:25:58.191Z,8.83
2022-11-05T04:28:44.775Z,8.70
2022-11-05T04:31:17.272Z,8.73
2022-11-05T04:33:49.986Z,8.20
2022-11-05T04:36:22.589Z,8.07
2022-11-05T04:38:56.598Z,8.50
2022-11-05T04:41:30.434Z,8.43
2022-11-05T04:44:03.254Z,8.20
2022-11-05T04:46:35.904Z,7.63
2022-11-05T04:49:09.632Z,8.37
2022-11-05T04:51:42.125Z,7.77
2022-11-05T04:54:16.256Z,7.80
2022-11-05T04:56:48.934Z,8.90
2022-11-05T04:59:21.474Z,8.00
2022-11-05T05:01:54.211Z,7.20
2022-11-05T05:04:26.923Z,7.33
2022-11-05T05:06:59.686Z,7.23
2022-11-05T05:09:33.571Z,7.40
2022-11-05T05:12:06.451Z,7.57
2022-11-05T05:14:39.293Z,7.83
2022-11-05T05:17:11.998Z,7.30
2022-11-05T05:20:02.617Z,8.13
2022-11-05T05:22:35.234Z,7.83
2022-11-05T05:25:09.588Z,7.50
2022-11-05T05:27:42.304Z,6.93
2022-11-05T05:30:17.356Z,7.77
2022-11-05T05:32:49.972Z,7.00
2022-11-05T05:35:22.689Z,7.63
2022-11-05T05:37:59.160Z,7.40
2022-11-05T05:40:35.816Z,7.57
2022-11-05T05:43:11.187Z,7.37
2022-11-05T05:45:44.071Z,7.77
2022-11-05T05:48:16.716Z,8.70
2022-11-05T05:50:49.499Z,8.20
2022-11-05T05:53:22.109Z,7.83
2022-11-05T05:55:56.332Z,7.60
2022-11-05T05:58:33.120Z,7.50
2022-11-05T06:01:12.937Z,7.43
2022-11-05T06:03:48.709Z,6.23
2022-11-05T06:06:21.521Z,7.70
2022-11-05T06:08:55.334Z,7.63
2022-11-05T06:11:29.268Z,7.87
2022-11-05T06:14:02.198Z,7.97
2022-11-05T06:16:35.800Z,8.43
2022-11-05T06:19:10.401Z,7.73
2022-11-05T06:21:44.600Z,7.20
2022-11-05T06:24:17.306Z,7.30
2022-11-05T06:26:51.286Z,7.70
2022-11-05T06:29:26.583Z,7.30
2022-11-05T06:31:59.127Z,7.47
2022-11-05T06:34:31.740Z,6.97
2022-11-05T06:37:04.406Z,7.10
2022-11-05T06:39:37.075Z,7.43
2022-11-05T06:42:18.276Z,7.47
2022-11-05T06:44:52.029Z,6.77
2022-11-05T06:47:24.688Z,7.23
2022-11-05T06:49:57.823Z,6.60
2022-11-05T06:52:31.251Z,6.50
2022-11-05T06:55:03.950Z,6.17
2022-11-05T06:57:42.538Z,6.03
2022-11-05T07:00:15.966Z,6.27
2022-11-05T07:02:48.760Z,7.27
2022-11-05T07:05:30.133Z,6.63
2022-11-05T07:08:02.805Z,6.80
2022-11-05T07:10:35.612Z,5.90
2022-11-05T07:13:09.783Z,6.43
2022-11-05T07:15:42.558Z,6.93
2022-11-05T07:18:15.214Z,6.63
2022-11-05T07:20:49.119Z,7.50
2022-11-05T07:23:21.834Z,7.07
2022-11-05T07:25:54.429Z,6.13
2022-11-05T07:28:28.363Z,6.20
2022-11-05T07:31:01.130Z,7.00
2022-11-05T07:33:36.570Z,6.67
2022-11-05T07:36:09.777Z,5.67
2022-11-05T07:38:42.333Z,7.10
2022-11-05T07:41:14.961Z,6.40
2022-11-05T07:43:48.895Z,6.83
2022-11-05T07:46:21.535Z,7.20
2022-11-05T07:48:54.147Z,5.90
2022-11-05T07:51:26.923Z,7.30
2022-11-05T07:53:59.550Z,6.10
2022-11-05T07:56:32.294Z,5.77
2022-11-05T07:59:07.180Z,6.00
2022-11-05T08:01:44.291Z,6.10
2022-11-05T08:04:16.932Z,5.80
2022-11-05T08:06:49.596Z,5.63
2022-11-05T08:09:24.172Z,6.27
2022-11-05T08:12:02.475Z,5.83
2022-11-05T08:14:36.917Z,6.37
2022-11-05T08:17:10.762Z,5.40
2022-11-05T08:19:44.220Z,5.80
2022-11-05T08:22:16.877Z,5.60
2022-11-05T08:24:51.524Z,6.27
2022-11-05T08:27:24.150Z,5.70
2022-11-05T08:29:58.267Z,6.00
2022-11-05T08:32:30.917Z,6.23
2022-11-05T08:35:03.480Z,6.03
2022-11-05T08:37:36.062Z,5.70
2022-11-05T08:40:09.756Z,5.40
2022-11-05T08:42:45.216Z,5.73
2022-11-05T08:45:19.652Z,6.20
2022-11-05T08:47:52.254Z,5.67
2022-11-05T08:50:26.922Z,5.90
2022-11-05T08:52:59.570Z,4.80
2022-11-05T08:55:32.523Z,5.30
2022-11-05T08:58:06.372Z,5.00
2022-11-05T09:00:40.683Z,5.07
2022-11-05T09:03:13.734Z,5.10
2022-11-05T09:05:46.935Z,5.40
2022-11-05T09:08:20.104Z,5.53
2022-11-05T09:10:52.676Z,5.17
2022-11-05T09:13:25.951Z,5.90
2022-11-05T09:16:03.482Z,5.70
2022-11-05T09:18:36.029Z,6.80
2022-11-05T09:21:08.714Z,5.03
2022-11-05T09:23:41.348Z,5.67
2022-11-05T09:26:14.895Z,6.10
2022-11-05T09:28:47.574Z,4.97
2022-11-05T09:31:21.535Z,4.90
2022-11-05T09:33:54.189Z,5.17
2022-11-05T09:36:26.889Z,4.43
2022-11-05T09:38:59.480Z,4.27
2022-11-05T09:41:33.825Z,4.90
2022-11-05T09:44:10.772Z,3.73
2022-11-05T09:46:50.432Z,5.20
2022-11-05T09:49:26.520Z,5.60
2022-11-05T09:52:02.141Z,4.50
2022-11-05T09:54:34.782Z,4.23
2022-11-05T09:57:09.507Z,4.20
2022-11-05T09:59:45.421Z,4.53
2022-11-05T10:02:21.538Z,3.47
2022-11-05T10:04:56.387Z,4.50
2022-11-05T10:07:31.014Z,4.50
2022-11-05T10:10:05.141Z,4.50
2022-11-05T10:12:41.104Z,4.77
2022-11-05T10:15:17.311Z,3.77
2022-11-05T10:17:54.281Z,4.73
2022-11-05T10:20:32.644Z,3.97
2022-11-05T10:23:11.527Z,3.83
2022-11-05T10:25:48.856Z,3.60
2022-11-05T10:28:22.684Z,3.60
2022-11-05T10:30:58.546Z,3.33
2022-11-05T10:33:34.870Z,3.53
2022-11-05T10:36:09.480Z,3.23
2022-11-05T10:38:42.331Z,3.33
2022-11-05T10:41:30.566Z,3.10
2022-11-05T10:44:08.459Z,3.03
2022-11-05T10:46:43.159Z,3.37
2022-11-05T10:49:23.599Z,3.17
2022-11-05T10:51:57.515Z,3.57
2022-11-05T10:54:32.700Z,3.00
2022-11-05T10:57:27.397Z,2.50
2022-11-05T11:00:16.795Z,2.97
2022-11-05T11:02:50.519Z,2.67
2022-11-05T11:05:26.062Z,2.83
2022-11-05T11:08:01.087Z,2.63
2022-11-05T11:10:35.619Z,2.63
2022-11-05T11:13:16.614Z,3.37
2022-11-05T11:15:50.902Z,2.90
2022-11-05T11:18:29.150Z,2.50
2022-11-05T11:21:07.795Z,2.60
2022-11-05T11:23:41.088Z,2.57
2022-11-05T11:26:16.052Z,3.00
2022-11-05T11:28:52.597Z,2.80
2022-11-05T11:31:28.993Z,2.70
2022-11-05T11:34:03.255Z,2.97
2022-11-05T11:36:41.324Z,2.93
2022-11-05T11:39:16.196Z,3.57
2022-11-05T11:41:53.179Z,2.07
2022-11-05T11:44:29.474Z,2.70
2022-11-05T11:47:05.912Z,2.10
2022-11-05T11:49:43.659Z,2.23
2022-11-05T11:52:19.463Z,1.87
2022-11-05T11:54:52.576Z,2.43
2022-11-05T11:57:26.418Z,2.23
2022-11-05T12:00:08.746Z,2.37
2022-11-05T12:03:02.296Z,2.20
2022-11-05T12:05:38.208Z,2.03
2022-11-05T12:08:18.037Z,2.10
2022-11-05T12:10:58.887Z,2.17
2022-11-05T12:13:50.328Z,2.17
2022-11-05T12:16:30.683Z,2.20
2022-11-05T12:19:07.214Z,2.80
2022-11-05T12:21:58.672Z,2.20
2022-11-05T12:24:46.121Z,2.40
2022-11-05T12:27:25.177Z,2.60
2022-11-05T12:30:03.134Z,1.87
2022-11-05T12:32:45.721Z,3.30
2022-11-05T12:35:25.744Z,2.17
2022-11-05T12:38:05.107Z,1.50
2022-11-05T12:40:42.371Z,1.20
2022-11-05T12:43:20.558Z,2.43
2022-11-05T12:45:57.414Z,1.70
2022-11-05T12:48:39.395Z,1.63
2022-11-05T12:51:19.216Z,1.77
2022-11-05T12:53:57.536Z,1.90
2022-11-05T12:56:35.528Z,1.83
2022-11-05T12:59:15.954Z,1.93
2022-11-05T13:01:51.134Z,2.30
2022-11-05T13:04:30.032Z,1.87
2022-11-05T13:07:05.291Z,1.90
2022-11-05T13:09:41.800Z,2.20
2022-11-05T13:12:16.015Z,2.10
2022-11-05T13:14:55.011Z,1.90
2022-11-05T13:17:30.649Z,2.50
2022-11-05T13:20:06.723Z,2.30
2022-11-05T13:22:41.429Z,2.60
2022-11-05T13:25:17.130Z,2.43
2022-11-05T13:27:56.046Z,2.07
2022-11-05T13:30:32.525Z,2.50
2022-11-05T13:33:06.911Z,2.10
2022-11-05T13:35:42.515Z,2.33
2022-11-05T13:38:36.725Z,2.23
2022-11-05T13:41:18.439Z,2.43
2022-11-05T13:44:00.299Z,2.30
2022-11-05T13:46:44.935Z,2.10
2022-11-05T13:49:39.640Z,2.40
2022-11-05T13:52:23.122Z,2.60
2022-11-05T13:55:09.142Z,2.43
2022-11-05T13:58:02.385Z,2.27
2022-11-05T14:00:37.618Z,2.17
2022-11-05T14:03:17.571Z,2.37
2022-11-05T14:05:53.166Z,2.20
2022-11-05T14:08:27.625Z,2.03
2022-11-05T14:11:02.086Z,2.43
2022-11-05T14:13:36.061Z,2.10
2022-11-05T14:16:09.931Z,1.87
2022-11-05T14:18:47.074Z,2.20
2022-11-05T14:21:48.262Z,2.37
2022-11-05T14:24:26.290Z,2.37
2022-11-05T14:27:18.324Z,1.83
2022-11-05T14:29:51.010Z,2.23
2022-11-05T14:32:27.953Z,2.17
2022-11-05T14:35:04.195Z,2.10
2022-11-05T14:37:39.377Z,2.37
2022-11-05T14:40:37.189Z,2.60
2022-11-05T14:43:21.225Z,2.67
2022-11-05T14:45:54.754Z,2.10
2022-11-05T14:48:38.721Z,2.60
2022-11-05T14:51:25.972Z,2.83
2022-11-05T14:54:01.497Z,2.87
2022-11-05T14:56:42.938Z,2.93
2022-11-05T14:59:35.037Z,2.90
2022-11-05T15:02:12.722Z,2.97
2022-11-05T15:04:45.894Z,2.83
2022-11-05T15:07:32.805Z,2.90
2022-11-05T15:10:11.404Z,2.90
2022-11-05T15:12:48.126Z,2.90
2022-11-05T15:15:22.732Z,3.20
2022-11-05T15:18:02.662Z,3.20
2022-11-05T15:20:40.121Z,3.23
2022-11-05T15:23:16.137Z,2.60
2022-11-05T15:25:53.608Z,3.20
2022-11-05T15:28:29.054Z,3.30
2022-11-05T15:31:02.405Z,3.50
2022-11-05T15:33:37.842Z,3.27
2022-11-05T15:36:11.552Z,3.37
2022-11-05T15:39:02.041Z,3.57
2022-11-05T15:41:38.006Z,4.00
2022-11-05T15:44:24.396Z,3.80
2022-11-05T15:47:13.813Z,3.07
2022-11-05T15:49:47.644Z,4.23
2022-11-05T15:52:22.248Z,3.37
2022-11-05T15:55:09.424Z,3.37
2022-11-05T15:57:49.344Z,3.43
2022-11-05T16:00:25.805Z,3.17
2022-11-05T16:02:59.645Z,3.53
2022-11-05T16:05:34.022Z,3.80
2022-11-05T16:08:14.647Z,3.80
2022-11-05T16:10:49.593Z,4.30
2022-11-05T16:13:24.279Z,2.90
2022-11-05T16:15:59.493Z,3.20
2022-11-05T16:18:33.328Z,4.03
2022-11-05T16:21:07.348Z,4.00
2022-11-05T16:23:41.450Z,3.60
2022-11-05T16:27:01.411Z,4.37
2022-11-05T16:29:28.499Z,4.60
2022-11-05T16:32:01.906Z,4.77
2022-11-05T16:34:37.185Z,4.93
2022-11-05T16:37:13.309Z,4.60
2022-11-05T16:39:45.964Z,5.60
2022-11-05T16:42:36.645Z,5.00
2022-11-05T16:45:14.751Z,5.37
2022-11-05T16:47:47.725Z,5.30
2022-11-05T16:50:22.052Z,5.80
2022-11-05T16:52:54.656Z,4.97
2022-11-05T16:55:28.295Z,5.63
2022-11-05T16:58:02.367Z,5.23
2022-11-05T17:00:37.695Z,5.40
2022-11-05T17:03:10.262Z,5.37
2022-11-05T17:05:42.825Z,4.97
2022-11-05T17:08:16.725Z,4.83
2022-11-05T17:10:49.438Z,5.33
2022-11-05T17:13:23.448Z,4.80
2022-11-05T17:15:56.168Z,5.10
2022-11-05T17:18:31.460Z,4.20
2022-11-05T17:21:07.284Z,4.87
2022-11-05T17:23:39.945Z,4.73
2022-11-05T17:26:13.460Z,4.50
2022-11-05T17:28:47.484Z,4.53
2022-11-05T17:31:29.883Z,4.70
2022-11-05T17:34:02.460Z,4.30
2022-11-05T17:36:35.197Z,4.03
2022-11-05T17:39:08.007Z,4.20
2022-11-05T17:41:43.337Z,4.30
2022-11-05T17:44:19.543Z,4.33
2022-11-05T17:46:52.272Z,4.87
2022-11-05T17:49:24.855Z,4.80
2022-11-05T17:51:59.771Z,4.50
2022-11-05T17:54:32.327Z,4.97
2022-11-05T17:57:05.245Z,4.97
2022-11-05T17:59:39.245Z,4.93
2022-11-05T18:02:12.673Z,4.40
2022-11-05T18:04:45.525Z,4.40
2022-11-05T18:07:18.101Z,4.20
2022-11-05T18:09:51.280Z,4.77
2022-11-05T18:12:25.909Z,4.37
2022-11-05T18:14:59.882Z,4.50
2022-11-05T18:17:32.690Z,5.27
2022-11-05T18:20:09.909Z,4.10
2022-11-05T18:22:45.975Z,4.90
2022-11-05T18:25:18.947Z,4.90
2022-11-05T18:27:53.605Z,5.30
2022-11-05T18:30:27.645Z,5.30
2022-11-05T18:33:00.221Z,5.83
2022-11-05T18:35:35.739Z,6.47
2022-11-05T18:38:08.293Z,7.33
2022-11-05T18:40:41.052Z,7.27
2022-11-05T18:43:14.656Z,6.20
2022-11-05T18:45:55.052Z,7.37
2022-11-05T18:48:27.760Z,8.00
2022-11-05T18:51:01.998Z,7.07
2022-11-05T18:53:34.784Z,6.73
2022-11-05T18:56:10.577Z,7.80
2022-11-05T18:58:43.568Z,6.27
2022-11-05T19:01:18.579Z,5.90
2022-11-05T19:03:52.158Z,7.83
2022-11-05T19:06:26.063Z,6.43
2022-11-05T19:08:58.741Z,5.73
2022-11-05T19:11:33.325Z,6.17
2022-11-05T19:14:08.939Z,6.33
2022-11-05T19:16:42.779Z,6.63
2022-11-05T19:19:15.446Z,8.07
2022-11-05T19:21:48.109Z,7.83
2022-11-05T19:24:20.754Z,7.37
2022-11-05T19:26:53.344Z,7.07
2022-11-05T19:29:26.017Z,7.33
2022-11-05T19:31:59.998Z,7.17
2022-11-05T19:34:32.562Z,7.93
2022-11-05T19:37:07.208Z,7.60
2022-11-05T19:39:40.444Z,7.97
2022-11-05T19:42:13.486Z,8.37
2022-11-05T19:44:46.072Z,8.57
2022-11-05T19:47:19.987Z,8.43
2022-11-05T19:49:54.036Z,9.20
2022-11-05T19:52:26.630Z,10.40
2022-11-05T19:54:59.252Z,8.93
2022-11-05T19:57:36.300Z,8.93
2022-11-05T20:00:10.115Z,8.33
2022-11-05T20:02:48.280Z,8.73
2022-11-05T20:05:21.117Z,9.60
2022-11-05T20:07:56.698Z,7.97
2022-11-05T20:10:29.320Z,9.50
2022-11-05T20:13:01.917Z,10.47
2022-11-05T20:15:38.345Z,9.50
2022-11-05T20:18:12.485Z,9.13
2022-11-05T20:20:45.888Z,9.83
2022-11-05T20:23:28.102Z,13.40
2022-11-05T20:26:00.743Z,15.03
2022-11-05T20:28:33.959Z,14.50
2022-11-05T20:31:08.357Z,13.47
2022-11-05T20:33:42.743Z,11.83
2022-11-05T20:36:16.107Z,11.60
2022-11-05T20:38:49.189Z,10.80
2022-11-05T20:41:21.902Z,9.83
2022-11-05T20:43:57.410Z,9.57
2022-11-05T20:46:29.970Z,9.70
2022-11-05T20:49:04.551Z,11.10
2022-11-05T20:51:37.257Z,10.73
2022-11-05T20:54:10.763Z,9.97
2022-11-05T20:56:43.372Z,10.33
2022-11-05T20:59:15.987Z,9.37
2022-11-05T21:01:48.779Z,10.43
2022-11-05T21:04:22.836Z,9.40
2022-11-05T21:06:55.384Z,11.10
2022-11-05T21:09:28.070Z,13.07
2022-11-05T21:12:12.759Z,13.30
2022-11-05T21:14:45.505Z,12.37
2022-11-05T21:17:18.703Z,12.40
2022-11-05T21:19:53.197Z,13.10
2022-11-05T21:22:25.750Z,10.63
2022-11-05T21:25:00.400Z,10.43
2022-11-05T21:27:32.987Z,10.40
2022-11-05T21:30:06.045Z,9.30
2022-11-05T21:32:38.761Z,12.87
2022-11-05T21:35:12.699Z,11.77
2022-11-05T21:37:45.315Z,9.73
2022-11-05T21:40:19.479Z,11.00
2022-11-05T21:42:52.024Z,9.10
2022-11-05T21:45:24.627Z,10.03
2022-11-05T21:47:57.406Z,9.23
2022-11-05T21:50:48.873Z,9.40
2022-11-05T21:53:39.328Z,8.40
2022-11-05T21:56:35.784Z,11.03
2022-11-05T21:59:28.616Z,10.90
2022-11-05T22:02:02.468Z,12.90
2022-11-05T22:04:36.460Z,10.43
2022-11-05T22:07:11.294Z,9.20
2022-11-05T22:09:43.962Z,9.23
2022-11-05T22:12:16.973Z,9.00
2022-11-05T22:14:49.550Z,8.73
2022-11-05T22:17:22.779Z,10.17
2022-11-05T22:19:55.395Z,10.60
2022-11-05T22:22:29.403Z,10.83
2022-11-05T22:25:02.015Z,10.00
2022-11-05T22:27:34.690Z,10.87
2022-11-05T22:30:07.961Z,9.77
2022-11-05T22:32:40.508Z,11.80
2022-11-05T22:35:13.788Z,16.13
2022-11-05T22:37:47.721Z,16.20
2022-11-05T22:40:23.728Z,13.47
2022-11-05T22:42:56.562Z,12.57
2022-11-05T22:45:29.160Z,12.37
2022-11-05T22:48:06.619Z,10.73
2022-11-05T22:50:39.540Z,9.60
2022-11-05T22:53:13.505Z,7.80
2022-11-05T22:55:46.131Z,7.43
2022-11-05T22:58:18.758Z,7.60
2022-11-05T23:00:51.368Z,6.83
2022-11-05T23:03:25.355Z,7.50
2022-11-05T23:05:58.334Z,8.10
2022-11-05T23:08:49.898Z,7.67
2022-11-05T23:11:38.558Z,6.90
2022-11-05T23:14:12.763Z,7.07
2022-11-05T23:17:03.151Z,7.47
2022-11-05T23:20:04.367Z,8.23
2022-11-05T23:22:54.657Z,8.60
2022-11-05T23:25:28.681Z,7.90
2022-11-05T23:28:01.156Z,7.80
2022-11-05T23:30:33.978Z,5.90
2022-11-05T23:33:05.525Z,5.93
2022-11-05T23:36:07.241Z,6.20
2022-11-05T23:38:40.123Z,6.23
2022-11-05T23:41:34.417Z,5.60
2022-11-05T23:44:24.703Z,6.43
2022-11-05T23:47:15.334Z,5.60
2022-11-05T23:49:51.194Z,5.90
2022-11-05T23:52:23.804Z,6.13
2022-11-05T23:54:56.357Z,6.53
2022-11-05T23:57:31.887Z,6.73
